createdAt,value
2019-01-27T00:01:27.709Z,2.35
2019-01-27T00:03:57.554Z,2.05
2019-01-27T00:06:27.489Z,2.08
2019-01-27T00:08:55.863Z,2.60
2019-01-27T00:11:26.311Z,2.47
2019-01-27T00:13:55.584Z,3.15
2019-01-27T00:16:27.308Z,3.40
2019-01-27T00:18:56.541Z,2.45
2019-01-27T00:21:24.908Z,2.52
2019-01-27T00:23:53.351Z,3.00
2019-01-27T00:26:21.707Z,1.92
2019-01-27T00:28:50.075Z,2.60
2019-01-27T00:31:18.382Z,2.83
2019-01-27T00:33:46.740Z,2.27
2019-01-27T00:36:15.244Z,2.27
2019-01-27T00:38:43.566Z,2.90
2019-01-27T00:41:12.003Z,2.62
2019-01-27T00:43:40.284Z,3.25
2019-01-27T00:46:08.625Z,3.12
2019-01-27T00:48:38.526Z,2.85
2019-01-27T00:51:06.856Z,2.65
2019-01-27T00:53:35.197Z,2.52
2019-01-27T00:56:03.543Z,2.58
2019-01-27T00:58:33.414Z,3.30
2019-01-27T01:01:04.803Z,2.70
2019-01-27T01:03:32.791Z,2.47
2019-01-27T01:06:01.348Z,2.30
2019-01-27T01:08:29.671Z,2.67
2019-01-27T01:10:59.923Z,2.90
2019-01-27T01:13:29.494Z,2.20
2019-01-27T01:15:57.841Z,2.40
2019-01-27T01:18:26.187Z,2.08
2019-01-27T01:20:54.564Z,2.70
2019-01-27T01:23:22.870Z,1.92
2019-01-27T01:25:51.784Z,1.92
2019-01-27T01:28:20.134Z,2.10
2019-01-27T01:30:49.849Z,2.42
2019-01-27T01:33:18.707Z,2.20
2019-01-27T01:35:48.084Z,2.22
2019-01-27T01:38:17.473Z,2.33
2019-01-27T01:40:48.026Z,2.72
2019-01-27T01:43:17.430Z,1.92
2019-01-27T01:45:45.761Z,2.40
2019-01-27T01:48:14.097Z,2.22
2019-01-27T01:50:42.451Z,2.10
2019-01-27T01:53:10.812Z,3.12
2019-01-27T01:55:39.154Z,2.58
2019-01-27T01:58:07.526Z,2.52
2019-01-27T02:00:40.143Z,2.83
2019-01-27T02:03:08.495Z,3.20
2019-01-27T02:05:36.811Z,3.58
2019-01-27T02:08:05.410Z,3.87
2019-01-27T02:10:33.755Z,3.12
2019-01-27T02:13:02.084Z,3.02
2019-01-27T02:15:32.025Z,3.47
2019-01-27T02:18:01.380Z,3.85
2019-01-27T02:20:29.688Z,3.62
2019-01-27T02:23:00.293Z,3.10
2019-01-27T02:25:28.608Z,2.98
2019-01-27T02:27:56.975Z,2.87
2019-01-27T02:30:26.864Z,2.98
2019-01-27T02:32:56.908Z,3.10
2019-01-27T02:35:28.739Z,2.35
2019-01-27T02:37:57.048Z,2.72
2019-01-27T02:40:25.383Z,3.08
2019-01-27T02:42:53.756Z,2.83
2019-01-27T02:45:22.072Z,3.87
2019-01-27T02:47:51.963Z,2.90
2019-01-27T02:50:20.308Z,3.10
2019-01-27T02:52:49.781Z,2.92
2019-01-27T02:55:18.045Z,2.20
2019-01-27T02:57:46.395Z,3.15
2019-01-27T03:00:21.010Z,2.87
2019-01-27T03:02:50.487Z,3.10
2019-01-27T03:05:36.545Z,3.05
2019-01-27T03:08:07.426Z,2.40
2019-01-27T03:10:35.751Z,2.00
2019-01-27T03:13:04.141Z,2.12
2019-01-27T03:15:33.583Z,1.92
2019-01-27T03:18:02.184Z,2.50
2019-01-27T03:20:30.552Z,3.72
2019-01-27T03:22:58.886Z,2.02
2019-01-27T03:25:27.613Z,2.37
2019-01-27T03:27:55.952Z,3.47
2019-01-27T03:30:25.840Z,2.25
2019-01-27T03:32:55.458Z,2.27
2019-01-27T03:35:24.168Z,2.50
2019-01-27T03:37:53.814Z,2.70
2019-01-27T03:40:22.146Z,2.60
2019-01-27T03:42:50.494Z,2.52
2019-01-27T03:45:19.664Z,2.85
2019-01-27T03:47:49.728Z,2.47
2019-01-27T03:50:18.730Z,2.67
2019-01-27T03:52:47.009Z,2.72
2019-01-27T03:55:18.842Z,2.40
2019-01-27T03:57:47.556Z,2.20
2019-01-27T04:00:19.048Z,2.15
2019-01-27T04:02:50.855Z,3.10
2019-01-27T04:05:19.351Z,2.45
2019-01-27T04:07:49.782Z,2.08
2019-01-27T04:10:19.796Z,2.22
2019-01-27T04:12:48.078Z,2.60
2019-01-27T04:15:17.655Z,2.13
2019-01-27T04:17:47.148Z,2.02
2019-01-27T04:20:16.259Z,2.58
2019-01-27T04:22:44.634Z,2.22
2019-01-27T04:25:13.276Z,2.60
2019-01-27T04:27:41.909Z,1.82
2019-01-27T04:30:13.502Z,2.33
2019-01-27T04:32:41.794Z,2.40
2019-01-27T04:35:10.607Z,2.12
2019-01-27T04:37:38.941Z,1.90
2019-01-27T04:40:11.810Z,2.72
2019-01-27T04:42:40.176Z,2.52
2019-01-27T04:45:10.532Z,2.83
2019-01-27T04:47:38.912Z,1.85
2019-01-27T04:50:08.809Z,2.27
2019-01-27T04:52:37.114Z,1.85
2019-01-27T04:55:07.033Z,2.17
2019-01-27T04:57:35.352Z,1.82
2019-01-27T05:00:05.906Z,2.72
2019-01-27T05:02:35.780Z,1.55
2019-01-27T05:05:05.627Z,2.24
2019-01-27T05:07:33.942Z,1.57
2019-01-27T05:10:02.293Z,2.17
2019-01-27T05:12:30.668Z,1.62
2019-01-27T05:14:58.975Z,1.80
2019-01-27T05:17:27.340Z,1.85
2019-01-27T05:19:55.682Z,1.42
2019-01-27T05:22:24.042Z,2.02
2019-01-27T05:24:52.401Z,2.37
2019-01-27T05:27:20.735Z,2.30
2019-01-27T05:29:49.121Z,2.20
2019-01-27T05:32:17.440Z,1.62
2019-01-27T05:34:46.770Z,2.27
2019-01-27T05:37:17.395Z,1.70
2019-01-27T05:39:45.735Z,1.82
2019-01-27T05:42:14.091Z,2.35
2019-01-27T05:44:42.400Z,2.05
2019-01-27T05:47:10.738Z,2.10
2019-01-27T05:49:39.054Z,2.00
2019-01-27T05:52:07.366Z,1.72
2019-01-27T05:54:36.798Z,2.50
2019-01-27T05:57:05.114Z,1.92
2019-01-27T05:59:33.427Z,2.15
2019-01-27T06:02:01.780Z,2.17
2019-01-27T06:04:31.210Z,2.77
2019-01-27T06:06:59.509Z,2.10
2019-01-27T06:09:27.879Z,2.33
2019-01-27T06:11:56.323Z,3.22
2019-01-27T06:14:24.651Z,1.90
2019-01-27T06:16:55.551Z,2.72
2019-01-27T06:19:23.875Z,1.98
2019-01-27T06:21:53.486Z,1.98
2019-01-27T06:24:22.811Z,2.45
2019-01-27T06:26:51.150Z,2.87
2019-01-27T06:29:19.503Z,2.02
2019-01-27T06:31:49.388Z,2.27
2019-01-27T06:34:17.738Z,1.60
2019-01-27T06:36:47.632Z,2.12
2019-01-27T06:39:17.515Z,2.25
2019-01-27T06:41:45.874Z,2.10
2019-01-27T06:44:19.419Z,1.32
2019-01-27T06:46:47.767Z,2.02
2019-01-27T06:49:19.097Z,1.52
2019-01-27T06:51:48.256Z,1.85
2019-01-27T06:54:17.271Z,2.22
2019-01-27T06:56:45.595Z,1.85
2019-01-27T06:59:22.827Z,2.35
2019-01-27T07:01:54.274Z,2.33
2019-01-27T07:04:26.982Z,2.17
2019-01-27T07:06:56.862Z,2.33
2019-01-27T07:09:32.740Z,2.30
2019-01-27T07:12:08.366Z,1.97
2019-01-27T07:14:38.314Z,2.08
2019-01-27T07:17:08.193Z,2.98
2019-01-27T07:19:57.674Z,2.33
2019-01-27T07:22:28.949Z,2.50
2019-01-27T07:25:10.986Z,2.45
2019-01-27T07:27:40.872Z,2.33
2019-01-27T07:30:15.190Z,1.80
2019-01-27T07:32:52.644Z,2.23
2019-01-27T07:35:31.356Z,2.40
2019-01-27T07:38:04.014Z,2.92
2019-01-27T07:40:50.018Z,3.05
2019-01-27T07:43:36.980Z,2.55
2019-01-27T07:46:15.667Z,2.45
2019-01-27T07:48:49.802Z,2.43
2019-01-27T07:51:22.392Z,2.55
2019-01-27T07:53:55.346Z,2.40
2019-01-27T07:56:25.272Z,1.72
2019-01-27T07:58:56.712Z,2.40
2019-01-27T08:01:28.002Z,2.12
2019-01-27T08:03:59.630Z,2.05
2019-01-27T08:06:29.546Z,1.85
2019-01-27T08:09:06.790Z,2.00
2019-01-27T08:11:36.703Z,3.60
2019-01-27T08:14:06.605Z,2.80
2019-01-27T08:16:53.228Z,2.33
2019-01-27T08:19:26.257Z,2.20
2019-01-27T08:22:03.666Z,2.40
2019-01-27T08:24:38.147Z,3.05
2019-01-27T08:27:13.601Z,1.82
2019-01-27T08:29:43.505Z,2.83
2019-01-27T08:32:13.467Z,3.95
2019-01-27T08:34:52.343Z,3.70
2019-01-27T08:37:24.185Z,3.42
2019-01-27T08:40:05.942Z,3.12
2019-01-27T08:42:41.463Z,3.62
2019-01-27T08:45:11.551Z,2.83
2019-01-27T08:47:40.381Z,2.47
2019-01-27T08:50:10.265Z,2.67
2019-01-27T08:52:40.167Z,2.20
2019-01-27T08:55:10.482Z,3.10
2019-01-27T08:57:39.968Z,2.83
2019-01-27T09:00:09.886Z,2.52
2019-01-27T09:02:42.860Z,2.30
2019-01-27T09:05:13.752Z,2.62
2019-01-27T09:07:58.587Z,1.92
2019-01-27T09:10:28.485Z,1.42
2019-01-27T09:12:58.933Z,1.10
2019-01-27T09:15:45.169Z,1.20
2019-01-27T09:18:36.659Z,1.50
2019-01-27T09:21:12.560Z,2.10
2019-01-27T09:23:42.467Z,1.50
2019-01-27T09:26:15.106Z,2.02
2019-01-27T09:28:54.075Z,1.42
2019-01-27T09:31:26.963Z,1.67
2019-01-27T09:34:13.398Z,2.12
2019-01-27T09:36:49.502Z,2.75
2019-01-27T09:39:26.415Z,1.80
2019-01-27T09:41:59.088Z,1.90
2019-01-27T09:44:34.808Z,2.50
2019-01-27T09:47:07.494Z,1.73
2019-01-27T09:49:43.416Z,2.20
2019-01-27T09:52:31.235Z,2.47
2019-01-27T09:55:03.931Z,1.82
2019-01-27T09:57:36.665Z,1.75
2019-01-27T10:00:38.725Z,2.25
2019-01-27T10:03:23.422Z,1.70
2019-01-27T10:05:56.342Z,2.15
2019-01-27T10:08:29.055Z,1.52
2019-01-27T10:11:14.831Z,1.50
2019-01-27T10:13:47.460Z,1.57
2019-01-27T10:16:17.407Z,2.05
2019-01-27T10:18:48.400Z,1.62
2019-01-27T10:21:18.945Z,2.27
2019-01-27T10:23:48.887Z,2.70
2019-01-27T10:26:19.146Z,3.22
2019-01-27T10:28:49.820Z,1.92
2019-01-27T10:31:38.131Z,1.87
2019-01-27T10:34:08.767Z,2.17
2019-01-27T10:36:46.910Z,1.70
2019-01-27T10:39:17.144Z,1.67
2019-01-27T10:41:56.004Z,2.47
2019-01-27T10:44:28.233Z,2.08
2019-01-27T10:47:16.287Z,2.15
2019-01-27T10:49:55.483Z,2.10
2019-01-27T10:52:25.691Z,1.90
2019-01-27T10:54:58.321Z,1.85
2019-01-27T10:57:31.180Z,2.90
2019-01-27T11:00:10.190Z,2.90
2019-01-27T11:02:43.817Z,2.60
2019-01-27T11:05:17.570Z,2.17
2019-01-27T11:07:51.459Z,2.47
2019-01-27T11:10:36.736Z,2.40
2019-01-27T11:13:09.434Z,3.20
2019-01-27T11:15:39.967Z,1.85
2019-01-27T11:18:12.842Z,2.22
2019-01-27T11:20:46.737Z,2.00
2019-01-27T11:23:16.787Z,1.95
2019-01-27T11:25:49.531Z,1.80
2019-01-27T11:28:22.444Z,2.08
2019-01-27T11:30:52.487Z,1.67
2019-01-27T11:33:22.807Z,1.25
2019-01-27T11:35:53.664Z,2.83
2019-01-27T11:38:29.644Z,2.17
2019-01-27T11:41:03.477Z,2.58
2019-01-27T11:43:33.851Z,2.92
2019-01-27T11:46:07.301Z,1.82
2019-01-27T11:48:37.311Z,2.22
2019-01-27T11:51:07.578Z,3.10
2019-01-27T11:53:35.914Z,3.83
2019-01-27T11:56:04.261Z,2.20
2019-01-27T11:58:32.611Z,2.30
2019-01-27T12:01:02.661Z,2.72
2019-01-27T12:03:31.015Z,2.50
2019-01-27T12:05:59.356Z,2.83
2019-01-27T12:08:28.094Z,2.90
2019-01-27T12:10:56.854Z,2.72
2019-01-27T12:13:25.180Z,3.25
2019-01-27T12:15:53.520Z,4.37
2019-01-27T12:18:24.911Z,2.92
2019-01-27T12:20:53.258Z,1.90
2019-01-27T12:23:21.614Z,2.72
2019-01-27T12:25:49.974Z,3.02
2019-01-27T12:28:18.291Z,3.17
2019-01-27T12:30:46.657Z,3.65
2019-01-27T12:33:16.366Z,2.95
2019-01-27T12:35:45.006Z,3.65
2019-01-27T12:38:14.266Z,2.85
2019-01-27T12:40:44.444Z,2.92
2019-01-27T12:43:14.175Z,3.72
2019-01-27T12:45:42.492Z,4.62
2019-01-27T12:48:10.855Z,4.58
2019-01-27T12:50:39.190Z,3.33
2019-01-27T12:53:07.552Z,2.95
2019-01-27T12:55:35.890Z,4.20
2019-01-27T12:58:04.448Z,4.05
2019-01-27T13:00:40.965Z,2.70
2019-01-27T13:03:09.271Z,3.12
2019-01-27T13:05:37.644Z,5.08
2019-01-27T13:08:05.969Z,4.95
2019-01-27T13:10:34.333Z,3.00
2019-01-27T13:13:02.715Z,3.62
2019-01-27T13:15:31.117Z,4.20
2019-01-27T13:17:59.514Z,3.85
2019-01-27T13:20:27.866Z,5.28
2019-01-27T13:22:56.187Z,2.55
2019-01-27T13:25:24.546Z,3.80
2019-01-27T13:27:53.457Z,2.83
2019-01-27T13:30:25.571Z,3.05
2019-01-27T13:32:54.004Z,3.52
2019-01-27T13:35:23.593Z,2.83
2019-01-27T13:37:53.186Z,4.45
2019-01-27T13:40:24.737Z,2.47
2019-01-27T13:42:54.739Z,3.52
2019-01-27T13:45:25.563Z,4.37
2019-01-27T13:47:58.902Z,5.22
2019-01-27T13:50:24.883Z,5.35
2019-01-27T13:52:53.241Z,3.62
2019-01-27T13:55:23.011Z,4.23
2019-01-27T13:57:52.608Z,3.95
2019-01-27T14:00:26.282Z,4.12
2019-01-27T14:02:54.704Z,2.95
2019-01-27T14:05:23.052Z,3.13
2019-01-27T14:07:51.563Z,3.47
2019-01-27T14:10:27.829Z,3.63
2019-01-27T14:12:58.457Z,3.52
2019-01-27T14:15:27.880Z,3.67
2019-01-27T14:17:55.044Z,3.55
2019-01-27T14:20:21.477Z,4.15
2019-01-27T14:22:48.139Z,2.60
2019-01-27T14:25:17.628Z,2.77
2019-01-27T14:27:44.127Z,2.95
2019-01-27T14:30:13.137Z,3.42
2019-01-27T14:32:41.666Z,4.08
2019-01-27T14:35:09.572Z,4.00
2019-01-27T14:37:36.029Z,3.92
2019-01-27T14:40:04.299Z,5.20
2019-01-27T14:42:30.755Z,4.60
2019-01-27T14:44:57.148Z,4.28
2019-01-27T14:47:23.576Z,3.42
2019-01-27T14:49:50.030Z,3.83
2019-01-27T14:52:16.424Z,3.15
2019-01-27T14:54:44.315Z,4.37
2019-01-27T14:57:12.663Z,4.22
2019-01-27T14:59:39.024Z,3.90
2019-01-27T15:02:05.416Z,2.92
2019-01-27T15:04:31.913Z,4.72
2019-01-27T15:06:58.334Z,4.45
2019-01-27T15:09:24.722Z,3.00
2019-01-27T15:11:51.420Z,3.65
2019-01-27T15:14:19.064Z,3.37
2019-01-27T15:16:45.450Z,2.42
2019-01-27T15:19:11.871Z,2.62
2019-01-27T15:21:38.330Z,4.00
2019-01-27T15:24:04.750Z,5.50
2019-01-27T15:26:31.192Z,7.72
2019-01-27T15:29:01.326Z,6.10
2019-01-27T15:31:30.518Z,5.08
2019-01-27T15:33:56.932Z,4.53
2019-01-27T15:36:25.140Z,4.35
2019-01-27T15:38:51.617Z,4.37
2019-01-27T15:41:22.870Z,5.08
2019-01-27T15:43:51.210Z,4.00
2019-01-27T15:46:18.629Z,5.75
2019-01-27T15:48:53.535Z,4.75
2019-01-27T15:51:21.282Z,4.95
2019-01-27T15:53:47.788Z,3.95
2019-01-27T15:56:14.251Z,3.47
2019-01-27T15:58:40.727Z,3.90
2019-01-27T16:01:07.167Z,3.95
2019-01-27T16:03:33.564Z,3.20
2019-01-27T16:06:00.032Z,4.22
2019-01-27T16:08:26.461Z,3.47
2019-01-27T16:10:52.928Z,3.33
2019-01-27T16:13:20.584Z,4.22
2019-01-27T16:15:47.243Z,4.30
2019-01-27T16:18:15.445Z,4.08
2019-01-27T16:20:42.572Z,4.62
2019-01-27T16:23:13.667Z,3.65
2019-01-27T16:25:41.459Z,5.65
2019-01-27T16:28:08.064Z,4.10
2019-01-27T16:30:48.236Z,3.22
2019-01-27T16:33:25.513Z,3.60
2019-01-27T16:35:51.949Z,2.77
2019-01-27T16:38:18.402Z,4.90
2019-01-27T16:40:44.847Z,4.35
2019-01-27T16:43:11.306Z,4.72
2019-01-27T16:45:37.726Z,5.42
2019-01-27T16:48:04.600Z,4.53
2019-01-27T16:50:31.070Z,4.25
2019-01-27T16:52:57.451Z,3.67
2019-01-27T16:55:23.872Z,3.30
2019-01-27T16:57:50.327Z,3.85
2019-01-27T17:00:20.061Z,4.37
2019-01-27T17:02:46.669Z,4.25
2019-01-27T17:05:13.802Z,3.90
2019-01-27T17:07:41.428Z,6.12
2019-01-27T17:10:09.411Z,4.67
2019-01-27T17:12:36.828Z,4.95
2019-01-27T17:15:04.431Z,3.72
2019-01-27T17:17:30.822Z,4.12
2019-01-27T17:20:02.618Z,3.87
2019-01-27T17:22:25.509Z,4.05
2019-01-27T17:24:51.946Z,3.85
2019-01-27T17:27:18.388Z,3.45
2019-01-27T17:29:44.918Z,3.00
2019-01-27T17:32:11.469Z,5.20
2019-01-27T17:34:40.811Z,3.58
2019-01-27T17:37:07.288Z,2.47
2019-01-27T17:39:33.763Z,3.15
2019-01-27T17:42:00.219Z,4.22
2019-01-27T17:44:28.152Z,3.77
2019-01-27T17:46:54.591Z,3.70
2019-01-27T17:49:21.011Z,3.45
2019-01-27T17:51:47.503Z,4.00
2019-01-27T17:54:13.971Z,3.75
2019-01-27T17:56:40.436Z,3.30
2019-01-27T17:59:11.473Z,3.22
2019-01-27T18:01:38.719Z,2.45
2019-01-27T18:04:06.940Z,2.95
2019-01-27T18:06:38.239Z,3.50
2019-01-27T18:09:17.023Z,4.53
2019-01-27T18:11:57.453Z,4.03
2019-01-27T18:14:25.646Z,4.72
2019-01-27T18:16:52.101Z,4.05
2019-01-27T18:19:18.547Z,3.92
2019-01-27T18:21:45.027Z,4.92
2019-01-27T18:24:12.540Z,3.50
2019-01-27T18:26:38.980Z,3.98
2019-01-27T18:29:05.436Z,3.27
2019-01-27T18:31:31.853Z,4.87
2019-01-27T18:33:59.941Z,3.20
2019-01-27T18:36:26.452Z,4.40
2019-01-27T18:38:52.951Z,9.18
2019-01-27T18:41:19.426Z,14.85
2019-01-27T18:43:45.866Z,5.05
2019-01-27T18:46:12.343Z,4.00
2019-01-27T18:48:38.849Z,4.20
2019-01-27T18:51:05.256Z,3.55
2019-01-27T18:53:50.202Z,3.83
2019-01-27T18:56:21.559Z,4.95
2019-01-27T18:58:49.754Z,3.72
2019-01-27T19:01:18.176Z,4.22
2019-01-27T19:03:47.496Z,4.12
2019-01-27T19:06:15.810Z,3.62
2019-01-27T19:08:46.843Z,3.87
2019-01-27T19:11:18.111Z,4.65
2019-01-27T19:13:49.247Z,3.20
2019-01-27T19:16:17.530Z,4.58
2019-01-27T19:19:03.987Z,4.17
2019-01-27T19:21:32.248Z,5.67
2019-01-27T19:24:12.360Z,3.75
2019-01-27T19:26:57.316Z,4.47
2019-01-27T19:29:25.579Z,2.72
2019-01-27T19:31:56.775Z,2.83
2019-01-27T19:34:43.279Z,3.70
2019-01-27T19:37:26.579Z,2.72
2019-01-27T19:40:11.252Z,4.30
2019-01-27T19:42:48.401Z,4.33
2019-01-27T19:45:16.638Z,4.20
2019-01-27T19:47:51.656Z,2.47
2019-01-27T19:50:35.982Z,3.72
2019-01-27T19:53:10.423Z,2.60
2019-01-27T19:55:38.677Z,3.05
2019-01-27T19:58:06.952Z,3.60
2019-01-27T20:00:51.292Z,3.50
2019-01-27T20:03:25.552Z,3.85
2019-01-27T20:06:09.678Z,4.30
2019-01-27T20:08:37.962Z,3.98
2019-01-27T20:11:08.712Z,3.58
2019-01-27T20:13:40.122Z,2.95
2019-01-27T20:16:08.312Z,3.47
2019-01-27T20:18:39.328Z,3.17
2019-01-27T20:21:10.548Z,2.65
2019-01-27T20:23:41.535Z,2.90
2019-01-27T20:26:12.636Z,3.30
2019-01-27T20:28:56.123Z,2.50
2019-01-27T20:31:27.410Z,2.62
2019-01-27T20:34:04.884Z,2.90
2019-01-27T20:36:41.778Z,3.10
2019-01-27T20:39:10.125Z,3.52
2019-01-27T20:41:38.315Z,3.50
2019-01-27T20:44:09.360Z,3.00
2019-01-27T20:46:37.573Z,2.45
2019-01-27T20:49:08.572Z,8.40
2019-01-27T20:51:42.737Z,9.55
2019-01-27T20:54:13.912Z,4.05
2019-01-27T20:56:44.646Z,3.10
2019-01-27T20:59:12.860Z,2.90
2019-01-27T21:01:56.292Z,4.50
2019-01-27T21:04:27.585Z,5.03
2019-01-27T21:06:58.838Z,3.33
2019-01-27T21:09:29.839Z,4.55
2019-01-27T21:12:04.484Z,4.58
2019-01-27T21:14:44.236Z,4.45
2019-01-27T21:17:21.250Z,4.12
2019-01-27T21:19:48.701Z,4.05
2019-01-27T21:22:15.156Z,4.10
2019-01-27T21:24:41.837Z,4.22
2019-01-27T21:27:08.349Z,3.30
2019-01-27T21:29:36.148Z,3.80
2019-01-27T21:32:02.588Z,3.25
2019-01-27T21:34:29.977Z,3.08
2019-01-27T21:36:56.755Z,3.27
2019-01-27T21:39:23.177Z,3.35
2019-01-27T21:41:49.670Z,2.12
2019-01-27T21:44:16.143Z,2.70
2019-01-27T21:46:42.611Z,2.90
2019-01-27T21:49:09.059Z,2.62
2019-01-27T21:51:35.528Z,2.27
2019-01-27T21:54:01.984Z,2.20
2019-01-27T21:56:28.433Z,2.45
2019-01-27T21:58:56.029Z,1.98
2019-01-27T22:01:25.608Z,2.20
2019-01-27T22:03:52.374Z,2.60
2019-01-27T22:06:18.849Z,2.40
2019-01-27T22:08:45.311Z,2.52
2019-01-27T22:11:12.047Z,3.40
2019-01-27T22:13:38.500Z,1.95
2019-01-27T22:16:04.912Z,2.33
2019-01-27T22:18:31.548Z,2.70
2019-01-27T22:20:57.951Z,3.00
2019-01-27T22:23:24.421Z,2.75
2019-01-27T22:25:50.840Z,1.85
2019-01-27T22:28:18.303Z,2.70
2019-01-27T22:30:45.907Z,2.50
2019-01-27T22:33:12.532Z,2.17
2019-01-27T22:35:39.839Z,2.62
2019-01-27T22:38:06.287Z,2.47
2019-01-27T22:40:32.719Z,2.12
2019-01-27T22:42:59.116Z,2.17
2019-01-27T22:45:25.628Z,2.25
2019-01-27T22:47:53.848Z,2.00
2019-01-27T22:50:20.283Z,2.37
2019-01-27T22:52:46.968Z,1.95
2019-01-27T22:55:13.408Z,2.10
2019-01-27T22:57:41.592Z,2.40
2019-01-27T23:00:11.563Z,2.22
2019-01-27T23:02:38.172Z,2.72
2019-01-27T23:05:06.275Z,2.30
2019-01-27T23:07:32.712Z,2.70
2019-01-27T23:09:59.180Z,2.77
2019-01-27T23:12:25.545Z,2.70
2019-01-27T23:14:52.088Z,2.27
2019-01-27T23:17:21.168Z,2.80
2019-01-27T23:19:47.528Z,2.45
2019-01-27T23:22:13.974Z,2.80
2019-01-27T23:24:40.346Z,2.47
2019-01-27T23:27:07.384Z,2.25
2019-01-27T23:29:33.818Z,2.80
2019-01-27T23:32:00.215Z,3.22
2019-01-27T23:34:26.659Z,2.35
2019-01-27T23:36:53.085Z,3.70
2019-01-27T23:39:20.624Z,2.70
2019-01-27T23:41:47.963Z,3.27
2019-01-27T23:44:14.441Z,2.27
2019-01-27T23:46:40.800Z,2.52
2019-01-27T23:49:07.266Z,3.70
2019-01-27T23:51:36.436Z,2.22
2019-01-27T23:54:02.899Z,2.25
2019-01-27T23:56:29.404Z,3.30
2019-01-27T23:58:55.854Z,2.35
